createdAt,value
2018-09-10T00:00:12.168Z,101315.28
2018-09-10T00:02:41.088Z,101309.44
2018-09-10T00:05:09.957Z,101310.33
2018-09-10T00:07:38.818Z,101307.05
2018-09-10T00:10:07.968Z,101302.13
2018-09-10T00:12:38.332Z,101320.48
2018-09-10T00:15:08.115Z,101319.77
2018-09-10T00:17:37.253Z,101314.19
2018-09-10T00:20:06.667Z,101323.59
2018-09-10T00:22:35.608Z,101318.34
2018-09-10T00:25:05.017Z,101311.11
2018-09-10T00:27:34.029Z,101310.04
2018-09-10T00:30:02.950Z,101311.32
2018-09-10T00:32:32.116Z,101303.48
2018-09-10T00:35:01.360Z,101311.56
2018-09-10T00:37:30.564Z,101313.86
2018-09-10T00:39:59.668Z,101307.85
2018-09-10T00:42:28.700Z,101308.27
2018-09-10T00:44:57.962Z,101311.98
2018-09-10T00:47:27.348Z,101302.44
2018-09-10T00:49:56.339Z,101304.56
2018-09-10T00:52:25.224Z,101290.73
2018-09-10T00:54:54.068Z,101304.41
2018-09-10T00:57:22.907Z,101308.45
2018-09-10T00:59:52.028Z,101309.72
2018-09-10T01:02:20.983Z,101316.06
2018-09-10T01:04:49.824Z,101318.63
2018-09-10T01:07:18.802Z,101292.37
2018-09-10T01:09:48.000Z,101304.08
2018-09-10T01:12:16.867Z,101306.58
2018-09-10T01:14:46.123Z,101306.95
2018-09-10T01:17:15.040Z,101310.41
2018-09-10T01:19:44.288Z,101316.34
2018-09-10T01:22:13.548Z,101304.91
2018-09-10T01:24:42.962Z,101313.20
2018-09-10T01:27:12.229Z,101305.14
2018-09-10T01:29:41.648Z,101300.55
2018-09-10T01:32:10.888Z,101306.62
2018-09-10T01:34:45.524Z,101306.52
2018-09-10T01:37:14.708Z,101309.19
2018-09-10T01:39:44.005Z,101314.60
2018-09-10T01:42:13.135Z,101312.20
2018-09-10T01:44:42.524Z,101305.41
2018-09-10T01:47:11.676Z,101307.59
2018-09-10T01:49:40.845Z,101304.50
2018-09-10T01:52:09.785Z,101286.33
2018-09-10T01:54:38.704Z,101307.00
2018-09-10T01:57:07.920Z,101304.32
2018-09-10T01:59:37.244Z,101304.11
2018-09-10T02:02:06.636Z,101308.76
2018-09-10T02:04:35.804Z,101303.52
2018-09-10T02:07:04.756Z,101309.56
2018-09-10T02:09:34.011Z,101309.84
2018-09-10T02:12:02.936Z,101311.24
2018-09-10T02:14:31.856Z,101315.10
2018-09-10T02:17:00.898Z,101299.80
2018-09-10T02:19:29.748Z,101301.06
2018-09-10T02:21:58.649Z,101299.91
2018-09-10T02:24:27.488Z,101303.44
2018-09-10T02:26:56.444Z,101306.39
2018-09-10T02:29:25.288Z,101305.95
2018-09-10T02:31:54.165Z,101305.64
2018-09-10T02:34:23.211Z,101297.50
2018-09-10T02:36:52.155Z,101307.16
2018-09-10T02:39:21.136Z,101306.59
2018-09-10T02:41:50.216Z,101307.65
2018-09-10T02:44:19.214Z,101315.37
2018-09-10T02:46:48.336Z,101314.37
2018-09-10T02:49:17.610Z,101318.48
2018-09-10T02:51:47.392Z,101317.11
2018-09-10T02:54:16.520Z,101321.16
2018-09-10T02:56:45.352Z,101325.08
2018-09-10T02:59:15.181Z,101324.70
2018-09-10T03:01:44.332Z,101327.66
2018-09-10T03:04:13.492Z,101332.38
2018-09-10T03:06:42.881Z,101329.20
2018-09-10T03:09:12.123Z,101332.33
2018-09-10T03:11:41.453Z,101339.50
2018-09-10T03:14:10.761Z,101342.41
2018-09-10T03:16:39.596Z,101349.17
2018-09-10T03:19:09.060Z,101348.42
2018-09-10T03:21:38.228Z,101354.90
2018-09-10T03:24:07.168Z,101361.11
2018-09-10T03:26:36.590Z,101353.81
2018-09-10T03:29:05.766Z,101357.56
2018-09-10T03:31:34.702Z,101358.80
2018-09-10T03:34:03.832Z,101353.58
2018-09-10T03:36:32.801Z,101357.87
2018-09-10T03:39:01.784Z,101355.33
2018-09-10T03:41:31.060Z,101366.41
2018-09-10T03:43:59.980Z,101363.72
2018-09-10T03:46:28.916Z,101371.01
2018-09-10T03:48:57.981Z,101368.58
2018-09-10T03:51:27.254Z,101366.41
2018-09-10T03:53:56.624Z,101370.50
2018-09-10T03:56:25.993Z,101376.04
2018-09-10T03:58:55.320Z,101386.89
2018-09-10T04:01:24.234Z,101379.77
2018-09-10T04:03:53.491Z,101388.69
2018-09-10T04:06:22.668Z,101392.34
2018-09-10T04:08:51.612Z,101393.39
2018-09-10T04:11:20.613Z,101400.91
2018-09-10T04:13:49.572Z,101401.17
2018-09-10T04:16:18.643Z,101398.48
2018-09-10T04:18:47.840Z,101405.48
2018-09-10T04:21:17.159Z,101411.48
2018-09-10T04:23:46.570Z,101406.29
2018-09-10T04:26:16.057Z,101416.13
2018-09-10T04:28:45.396Z,101419.45
2018-09-10T04:31:14.628Z,101423.55
2018-09-10T04:33:44.060Z,101431.67
2018-09-10T04:36:13.509Z,101428.88
2018-09-10T04:38:42.694Z,101434.64
2018-09-10T04:41:11.629Z,101434.77
2018-09-10T04:43:40.882Z,101444.97
2018-09-10T04:46:10.115Z,101441.75
2018-09-10T04:48:39.469Z,101436.19
2018-09-10T04:51:08.525Z,101440.58
2018-09-10T04:53:37.778Z,101440.80
2018-09-10T04:56:06.702Z,101441.42
2018-09-10T04:58:35.520Z,101443.17
2018-09-10T05:01:04.644Z,101441.17
2018-09-10T05:03:33.540Z,101444.98
2018-09-10T05:06:02.474Z,101443.59
2018-09-10T05:08:31.396Z,101438.79
2018-09-10T05:11:00.301Z,101431.16
2018-09-10T05:13:29.774Z,101436.51
2018-09-10T05:15:58.849Z,101433.48
2018-09-10T05:18:27.768Z,101441.75
2018-09-10T05:20:56.591Z,101440.59
2018-09-10T05:23:25.451Z,101445.72
2018-09-10T05:25:54.292Z,101446.77
2018-09-10T05:28:23.372Z,101440.95
2018-09-10T05:30:52.657Z,101445.83
2018-09-10T05:33:21.776Z,101443.91
2018-09-10T05:35:50.716Z,101449.11
2018-09-10T05:38:19.696Z,101451.24
2018-09-10T05:40:48.884Z,101445.91
2018-09-10T05:43:17.923Z,101452.28
2018-09-10T05:45:47.247Z,101454.27
2018-09-10T05:48:16.221Z,101450.22
2018-09-10T05:50:45.380Z,101447.19
2018-09-10T05:53:14.327Z,101441.83
2018-09-10T05:55:43.176Z,101440.31
2018-09-10T05:58:12.096Z,101444.52
2018-09-10T06:00:41.321Z,101443.69
2018-09-10T06:03:10.227Z,101441.34
2018-09-10T06:05:39.157Z,101440.45
2018-09-10T06:08:08.949Z,101439.95
2018-09-10T06:10:38.028Z,101439.39
2018-09-10T06:13:07.136Z,101440.52
2018-09-10T06:15:36.150Z,101440.79
2018-09-10T06:18:05.177Z,101440.63
2018-09-10T06:20:34.165Z,101448.20
2018-09-10T06:23:03.104Z,101450.05
2018-09-10T06:25:32.048Z,101448.60
2018-09-10T06:28:00.969Z,101450.74
2018-09-10T06:30:29.862Z,101459.68
2018-09-10T06:32:58.779Z,101469.74
2018-09-10T06:35:27.724Z,101464.89
2018-09-10T06:37:56.597Z,101455.92
2018-09-10T06:40:25.538Z,101456.69
2018-09-10T06:42:55.276Z,101462.64
2018-09-10T06:45:24.185Z,101458.55
2018-09-10T06:47:53.446Z,101461.23
2018-09-10T06:50:22.264Z,101454.20
2018-09-10T06:52:51.585Z,101454.47
2018-09-10T06:55:20.408Z,101450.69
2018-09-10T06:57:49.456Z,101450.20
2018-09-10T07:00:18.399Z,101451.23
2018-09-10T07:02:47.712Z,101445.03
2018-09-10T07:05:16.780Z,101444.72
2018-09-10T07:07:45.811Z,101446.58
2018-09-10T07:10:15.457Z,101455.92
2018-09-10T07:12:44.555Z,101457.06
2018-09-10T07:15:14.040Z,101456.39
2018-09-10T07:17:43.073Z,101445.72
2018-09-10T07:20:12.060Z,101454.33
2018-09-10T07:22:41.414Z,101451.00
2018-09-10T07:25:10.600Z,101447.28
2018-09-10T07:27:39.745Z,101445.14
2018-09-10T07:30:08.712Z,101440.42
2018-09-10T07:32:37.611Z,101438.72
2018-09-10T07:35:06.420Z,101443.57
2018-09-10T07:37:35.648Z,101439.81
2018-09-10T07:40:04.581Z,101437.35
2018-09-10T07:42:33.908Z,101441.09
2018-09-10T07:45:02.818Z,101437.58
2018-09-10T07:47:31.741Z,101436.38
2018-09-10T07:50:00.953Z,101439.56
2018-09-10T07:52:30.229Z,101437.13
2018-09-10T07:54:59.389Z,101436.05
2018-09-10T07:57:28.376Z,101438.23
2018-09-10T07:59:57.468Z,101431.17
2018-09-10T08:02:26.624Z,101434.12
2018-09-10T08:04:55.564Z,101431.33
2018-09-10T08:07:24.803Z,101429.54
2018-09-10T08:09:53.825Z,101433.28
2018-09-10T08:12:22.657Z,101432.93
2018-09-10T08:14:51.820Z,101428.38
2018-09-10T08:17:20.612Z,101419.13
2018-09-10T08:19:50.053Z,101419.05
2018-09-10T08:22:19.020Z,101418.27
2018-09-10T08:24:47.831Z,101414.09
2018-09-10T08:27:17.104Z,101417.46
2018-09-10T08:29:45.943Z,101412.48
2018-09-10T08:32:14.976Z,101405.67
2018-09-10T08:34:43.938Z,101405.50
2018-09-10T08:37:12.872Z,101405.67
2018-09-10T08:39:41.797Z,101408.75
2018-09-10T08:42:10.739Z,101408.75
2018-09-10T08:44:40.028Z,101400.59
2018-09-10T08:47:09.253Z,101408.10
2018-09-10T08:49:38.283Z,101395.38
2018-09-10T08:52:07.201Z,101398.11
2018-09-10T08:54:36.481Z,101398.56
2018-09-10T08:57:05.434Z,101391.62
2018-09-10T08:59:34.400Z,101398.38
2018-09-10T09:02:03.419Z,101397.23
2018-09-10T09:04:32.484Z,101398.26
2018-09-10T09:07:01.505Z,101395.40
2018-09-10T09:09:30.337Z,101392.00
2018-09-10T09:11:59.155Z,101398.91
2018-09-10T09:14:28.236Z,101394.69
2018-09-10T09:16:57.182Z,101388.84
2018-09-10T09:19:26.148Z,101401.24
2018-09-10T09:21:55.189Z,101399.39
2018-09-10T09:24:24.067Z,101390.27
2018-09-10T09:26:52.980Z,101387.36
2018-09-10T09:29:21.931Z,101396.67
2018-09-10T09:31:51.232Z,101383.93
2018-09-10T09:34:20.324Z,101380.97
2018-09-10T09:36:54.424Z,101371.11
2018-09-10T09:39:29.060Z,101385.63
2018-09-10T09:42:03.394Z,101376.70
2018-09-10T09:44:37.401Z,101372.86
2018-09-10T09:47:06.381Z,101376.55
2018-09-10T09:49:35.797Z,101381.75
2018-09-10T09:52:05.244Z,101372.32
2018-09-10T09:54:34.061Z,101375.77
2018-09-10T09:57:03.575Z,101378.66
2018-09-10T09:59:32.421Z,101370.80
2018-09-10T10:02:06.816Z,101370.47
2018-09-10T10:04:35.834Z,101366.74
2018-09-10T10:07:04.700Z,101369.31
2018-09-10T10:09:33.620Z,101362.55
2018-09-10T10:12:02.593Z,101362.95
2018-09-10T10:14:31.566Z,101363.66
2018-09-10T10:17:00.508Z,101360.45
2018-09-10T10:19:29.423Z,101352.86
2018-09-10T10:21:58.269Z,101357.00
2018-09-10T10:24:27.173Z,101348.77
2018-09-10T10:26:56.019Z,101344.68
2018-09-10T10:29:24.977Z,101344.64
2018-09-10T10:31:53.894Z,101343.81
2018-09-10T10:34:22.810Z,101346.16
2018-09-10T10:36:51.912Z,101341.85
2018-09-10T10:39:20.852Z,101347.77
2018-09-10T10:41:49.744Z,101342.20
2018-09-10T10:44:19.029Z,101340.62
2018-09-10T10:46:48.300Z,101336.96
2018-09-10T10:49:18.129Z,101338.09
2018-09-10T10:51:47.183Z,101339.28
2018-09-10T10:54:16.108Z,101339.89
2018-09-10T10:56:45.060Z,101340.31
2018-09-10T10:59:14.040Z,101340.68
2018-09-10T11:01:42.985Z,101337.81
2018-09-10T11:04:12.166Z,101339.06
2018-09-10T11:06:41.348Z,101331.20
2018-09-10T11:09:10.260Z,101336.91
2018-09-10T11:11:39.060Z,101335.13
2018-09-10T11:14:08.053Z,101328.91
2018-09-10T11:16:37.068Z,101327.85
2018-09-10T11:19:05.876Z,101319.91
2018-09-10T11:21:34.948Z,101313.36
2018-09-10T11:24:03.831Z,101313.03
2018-09-10T11:26:33.078Z,101302.94
2018-09-10T11:29:02.297Z,101308.77
2018-09-10T11:31:31.552Z,101311.91
2018-09-10T11:34:00.541Z,101307.20
2018-09-10T11:36:29.822Z,101303.78
2018-09-10T11:38:58.760Z,101303.38
2018-09-10T11:41:28.042Z,101308.22
2018-09-10T11:43:56.900Z,101304.34
2018-09-10T11:46:25.837Z,101307.42
2018-09-10T11:48:54.648Z,101305.98
2018-09-10T11:51:23.600Z,101302.18
2018-09-10T11:53:52.535Z,101301.97
2018-09-10T11:56:21.441Z,101297.19
2018-09-10T11:58:50.973Z,101295.39
2018-09-10T12:01:19.966Z,101297.61
2018-09-10T12:03:48.913Z,101297.70
2018-09-10T12:06:17.735Z,101290.07
2018-09-10T12:08:46.693Z,101291.39
2018-09-10T12:11:15.615Z,101294.41
2018-09-10T12:13:44.893Z,101292.27
2018-09-10T12:16:14.068Z,101284.05
2018-09-10T12:18:42.942Z,101283.34
2018-09-10T12:21:11.775Z,101291.48
2018-09-10T12:23:40.775Z,101290.33
2018-09-10T12:26:09.911Z,101283.30
2018-09-10T12:28:39.028Z,101284.50
2018-09-10T12:31:08.356Z,101287.34
2018-09-10T12:33:37.604Z,101282.33
2018-09-10T12:36:07.157Z,101280.55
2018-09-10T12:38:36.492Z,101280.37
2018-09-10T12:41:05.364Z,101269.72
2018-09-10T12:43:34.427Z,101279.17
2018-09-10T12:46:03.347Z,101269.54
2018-09-10T12:48:32.601Z,101278.73
2018-09-10T12:51:01.535Z,101274.30
2018-09-10T12:53:30.684Z,101273.41
2018-09-10T12:55:59.540Z,101274.94
2018-09-10T12:58:28.648Z,101275.62
2018-09-10T13:00:57.615Z,101265.70
2018-09-10T13:03:26.565Z,101267.11
2018-09-10T13:05:55.504Z,101262.77
2018-09-10T13:08:24.407Z,101258.92
2018-09-10T13:10:53.208Z,101249.56
2018-09-10T13:13:22.497Z,101253.63
2018-09-10T13:15:51.407Z,101242.21
2018-09-10T13:18:20.308Z,101249.03
2018-09-10T13:20:49.480Z,101252.62
2018-09-10T13:23:18.849Z,101248.08
2018-09-10T13:25:48.081Z,101252.61
2018-09-10T13:28:17.224Z,101258.71
2018-09-10T13:30:46.177Z,101247.10
2018-09-10T13:33:15.111Z,101251.10
2018-09-10T13:35:44.117Z,101252.47
2018-09-10T13:38:13.236Z,101253.23
2018-09-10T13:40:42.149Z,101252.30
2018-09-10T13:43:11.136Z,101253.48
2018-09-10T13:45:40.895Z,101246.72
2018-09-10T13:48:10.080Z,101240.30
2018-09-10T13:50:39.137Z,101238.86
2018-09-10T13:53:08.054Z,101237.37
2018-09-10T13:55:36.973Z,101238.02
2018-09-10T13:58:05.928Z,101237.59
2018-09-10T14:00:34.803Z,101235.91
2018-09-10T14:03:03.605Z,101233.69
2018-09-10T14:05:32.569Z,101235.46
2018-09-10T14:08:01.945Z,101235.86
2018-09-10T14:10:30.794Z,101236.91
2018-09-10T14:13:00.228Z,101233.39
2018-09-10T14:15:29.366Z,101231.70
2018-09-10T14:17:58.238Z,101231.33
2018-09-10T14:20:27.211Z,101231.42
2018-09-10T14:22:56.533Z,101224.09
2018-09-10T14:25:25.440Z,101227.45
2018-09-10T14:27:54.332Z,101229.58
2018-09-10T14:30:23.432Z,101232.18
2018-09-10T14:32:52.408Z,101234.80
2018-09-10T14:35:21.548Z,101235.66
2018-09-10T14:37:50.756Z,101240.81
2018-09-10T14:40:20.072Z,101241.69
2018-09-10T14:42:49.744Z,101239.71
2018-09-10T14:45:18.588Z,101248.98
2018-09-10T14:47:47.877Z,101244.33
2018-09-10T14:50:17.307Z,101240.95
2018-09-10T14:52:46.941Z,101246.65
2018-09-10T14:55:16.083Z,101244.81
2018-09-10T14:57:45.509Z,101246.27
2018-09-10T15:00:19.888Z,101245.07
2018-09-10T15:02:49.207Z,101243.63
2018-09-10T15:05:18.501Z,101250.50
2018-09-10T15:07:47.726Z,101255.26
2018-09-10T15:10:16.796Z,101248.46
2018-09-10T15:12:45.722Z,101249.53
2018-09-10T15:15:15.144Z,101252.67
2018-09-10T15:17:44.396Z,101252.23
2018-09-10T15:20:13.813Z,101250.42
2018-09-10T15:22:42.880Z,101254.06
2018-09-10T15:25:11.918Z,101252.72
2018-09-10T15:27:41.108Z,101249.92
2018-09-10T15:30:10.361Z,101258.15
2018-09-10T15:32:39.780Z,101265.61
2018-09-10T15:35:08.993Z,101268.25
2018-09-10T15:37:38.147Z,101274.13
2018-09-10T15:40:07.344Z,101275.25
2018-09-10T15:42:36.677Z,101273.63
2018-09-10T15:45:05.656Z,101271.09
2018-09-10T15:47:34.561Z,101278.86
2018-09-10T15:50:03.538Z,101280.08
2018-09-10T15:52:32.733Z,101281.23
2018-09-10T15:55:02.308Z,101283.88
2018-09-10T15:57:31.217Z,101280.69
2018-09-10T16:00:00.360Z,101284.81
2018-09-10T16:02:29.528Z,101279.61
2018-09-10T16:04:58.493Z,101288.09
2018-09-10T16:07:27.417Z,101282.88
2018-09-10T16:09:56.277Z,101288.94
2018-09-10T16:12:25.493Z,101289.40
2018-09-10T16:14:54.308Z,101289.47
2018-09-10T16:17:23.300Z,101288.81
2018-09-10T16:19:52.152Z,101295.89
2018-09-10T16:22:21.243Z,101289.57
2018-09-10T16:24:50.429Z,101293.55
2018-09-10T16:27:19.381Z,101290.19
2018-09-10T16:29:48.273Z,101307.00
2018-09-10T16:32:17.144Z,101306.43
2018-09-10T16:34:46.180Z,101312.94
2018-09-10T16:37:15.226Z,101323.52
2018-09-10T16:39:44.159Z,101329.77
2018-09-10T16:42:13.007Z,101327.77
2018-09-10T16:44:41.924Z,101320.37
2018-09-10T16:47:10.872Z,101326.98
2018-09-10T16:49:40.068Z,101325.81
2018-09-10T16:52:09.013Z,101324.95
2018-09-10T16:54:38.154Z,101327.41
2018-09-10T16:57:07.180Z,101323.17
2018-09-10T16:59:36.628Z,101324.84
2018-09-10T17:02:05.594Z,101322.25
2018-09-10T17:04:34.565Z,101331.41
2018-09-10T17:07:03.460Z,101334.55
2018-09-10T17:09:32.757Z,101336.17
2018-09-10T17:12:01.895Z,101348.31
2018-09-10T17:14:31.157Z,101344.66
2018-09-10T17:17:00.225Z,101345.82
2018-09-10T17:19:29.083Z,101350.41
2018-09-10T17:21:57.928Z,101350.36
2018-09-10T17:24:26.925Z,101348.03
2018-09-10T17:26:55.900Z,101352.48
2018-09-10T17:29:25.098Z,101353.21
2018-09-10T17:31:54.065Z,101354.22
2018-09-10T17:34:22.944Z,101362.42
2018-09-10T17:36:52.192Z,101362.19
2018-09-10T17:39:21.568Z,101360.16
2018-09-10T17:41:50.584Z,101361.97
2018-09-10T17:44:19.952Z,101364.97
2018-09-10T17:46:48.973Z,101362.34
2018-09-10T17:49:17.847Z,101362.55
2018-09-10T17:51:47.297Z,101363.00
2018-09-10T17:54:16.225Z,101364.72
2018-09-10T17:56:45.336Z,101364.45
2018-09-10T17:59:14.680Z,101371.12
2018-09-10T18:01:43.775Z,101363.00
2018-09-10T18:04:13.260Z,101365.87
2018-09-10T18:06:42.608Z,101367.36
2018-09-10T18:09:12.600Z,101367.15
2018-09-10T18:11:43.192Z,101366.06
2018-09-10T18:14:12.559Z,101372.06
2018-09-10T18:16:41.426Z,101366.03
2018-09-10T18:19:10.751Z,101366.26
2018-09-10T18:21:39.616Z,101366.51
2018-09-10T18:24:08.924Z,101369.42
2018-09-10T18:26:38.149Z,101364.16
2018-09-10T18:29:07.556Z,101367.39
2018-09-10T18:31:36.659Z,101358.63
2018-09-10T18:34:05.967Z,101363.11
2018-09-10T18:36:35.179Z,101356.19
2018-09-10T18:39:04.576Z,101357.92
2018-09-10T18:41:33.648Z,101356.75
2018-09-10T18:44:02.963Z,101357.19
2018-09-10T18:46:32.144Z,101359.89
2018-09-10T18:49:01.475Z,101360.22
2018-09-10T18:51:30.672Z,101357.20
2018-09-10T18:53:59.724Z,101358.78
2018-09-10T18:56:28.950Z,101358.87
2018-09-10T18:58:58.348Z,101352.83
2018-09-10T19:01:27.571Z,101352.45
2018-09-10T19:03:56.544Z,101353.44
2018-09-10T19:06:25.744Z,101354.03
2018-09-10T19:08:54.957Z,101352.97
2018-09-10T19:11:24.056Z,101352.97
2018-09-10T19:13:53.280Z,101358.97
2018-09-10T19:16:22.372Z,101362.42
2018-09-10T19:18:51.379Z,101354.97
2018-09-10T19:21:20.572Z,101348.41
2018-09-10T19:23:49.501Z,101352.23
2018-09-10T19:26:18.492Z,101349.38
2018-09-10T19:28:47.782Z,101351.55
2018-09-10T19:31:16.972Z,101360.69
2018-09-10T19:33:46.285Z,101357.84
2018-09-10T19:36:15.657Z,101360.86
2018-09-10T19:38:44.918Z,101358.31
2018-09-10T19:41:14.129Z,101358.04
2018-09-10T19:43:43.156Z,101359.60
2018-09-10T19:46:12.128Z,101358.91
2018-09-10T19:48:41.088Z,101359.31
2018-09-10T19:51:09.934Z,101359.61
2018-09-10T19:53:38.817Z,101364.53
2018-09-10T19:56:07.856Z,101362.56
2018-09-10T19:58:36.842Z,101361.20
2018-09-10T20:01:05.696Z,101363.33
2018-09-10T20:03:34.617Z,101360.70
2018-09-10T20:06:04.809Z,101366.67
2018-09-10T20:08:33.758Z,101368.02
2018-09-10T20:11:02.672Z,101371.66
2018-09-10T20:13:31.677Z,101369.57
2018-09-10T20:16:00.593Z,101370.27
2018-09-10T20:18:29.620Z,101367.38
2018-09-10T20:20:58.420Z,101359.92
2018-09-10T20:23:27.708Z,101369.61
2018-09-10T20:25:56.888Z,101361.45
2018-09-10T20:28:26.522Z,101372.13
2018-09-10T20:30:55.562Z,101366.84
2018-09-10T20:33:25.206Z,101365.15
2018-09-10T20:35:54.420Z,101377.47
2018-09-10T20:38:23.525Z,101376.95
2018-09-10T20:40:52.758Z,101372.99
2018-09-10T20:43:21.658Z,101375.73
2018-09-10T20:45:50.639Z,101375.44
2018-09-10T20:48:19.795Z,101381.47
2018-09-10T20:50:48.704Z,101380.24
2018-09-10T20:53:17.993Z,101379.16
2018-09-10T20:55:47.282Z,101386.28
2018-09-10T20:58:16.325Z,101383.64
2018-09-10T21:00:45.433Z,101383.93
2018-09-10T21:03:14.824Z,101384.17
2018-09-10T21:05:44.232Z,101387.33
2018-09-10T21:08:13.549Z,101388.36
2018-09-10T21:10:42.753Z,101391.48
2018-09-10T21:13:12.005Z,101388.59
2018-09-10T21:15:40.917Z,101385.91
2018-09-10T21:18:09.783Z,101387.17
2018-09-10T21:20:38.688Z,101390.48
2018-09-10T21:23:07.601Z,101389.92
2018-09-10T21:25:36.829Z,101387.23
2018-09-10T21:28:05.887Z,101390.91
2018-09-10T21:30:34.847Z,101389.64
2018-09-10T21:33:04.108Z,101388.36
2018-09-10T21:35:33.552Z,101390.30
2018-09-10T21:38:02.697Z,101389.97
2018-09-10T21:40:31.844Z,101384.30
2018-09-10T21:43:00.969Z,101385.34
2018-09-10T21:45:29.840Z,101385.34
2018-09-10T21:47:58.959Z,101380.25
2018-09-10T21:50:27.775Z,101382.51
2018-09-10T21:52:56.732Z,101380.81
2018-09-10T21:55:25.664Z,101383.08
2018-09-10T21:57:54.570Z,101386.37
2018-09-10T22:00:23.555Z,101384.58
2018-09-10T22:02:53.018Z,101382.09
2018-09-10T22:05:21.952Z,101383.17
2018-09-10T22:07:51.221Z,101392.50
2018-09-10T22:10:20.558Z,101387.80
2018-09-10T22:12:49.879Z,101384.40
2018-09-10T22:15:19.100Z,101385.91
2018-09-10T22:17:48.368Z,101386.65
2018-09-10T22:20:17.584Z,101386.12
2018-09-10T22:22:46.691Z,101388.16
2018-09-10T22:25:16.221Z,101390.52
2018-09-10T22:27:45.279Z,101387.41
2018-09-10T22:30:14.520Z,101392.13
2018-09-10T22:32:43.843Z,101395.15
2018-09-10T22:35:13.141Z,101396.73
2018-09-10T22:37:42.272Z,101397.46
2018-09-10T22:40:11.840Z,101396.94
2018-09-10T22:42:41.229Z,101392.27
2018-09-10T22:45:10.436Z,101391.75
2018-09-10T22:47:39.327Z,101399.77
2018-09-10T22:50:08.413Z,101394.59
2018-09-10T22:52:37.395Z,101389.63
2018-09-10T22:55:06.786Z,101396.47
2018-09-10T22:57:35.820Z,101396.43
2018-09-10T23:00:04.984Z,101396.10
2018-09-10T23:02:34.104Z,101390.25
2018-09-10T23:05:03.141Z,101382.84
2018-09-10T23:07:32.084Z,101389.50
2018-09-10T23:10:00.933Z,101385.97
2018-09-10T23:12:29.839Z,101383.74
2018-09-10T23:14:59.199Z,101387.89
2018-09-10T23:17:28.126Z,101384.35
2018-09-10T23:19:57.194Z,101378.78
2018-09-10T23:22:26.028Z,101382.04
2018-09-10T23:24:54.999Z,101380.75
2018-09-10T23:27:23.851Z,101378.09
2018-09-10T23:29:52.796Z,101381.51
2018-09-10T23:32:21.855Z,101388.88
2018-09-10T23:34:50.803Z,101381.25
2018-09-10T23:37:20.288Z,101383.81
2018-09-10T23:39:49.555Z,101385.36
2018-09-10T23:42:19.108Z,101384.23
2018-09-10T23:44:48.332Z,101385.14
2018-09-10T23:47:17.464Z,101382.95
2018-09-10T23:49:46.579Z,101381.08
2018-09-10T23:52:15.820Z,101385.73
2018-09-10T23:54:45.020Z,101382.87
2018-09-10T23:57:14.434Z,101381.59
2018-09-10T23:59:43.512Z,101377.25
